関西国際空港の過去48時間の天気

関西国際空港 (Kansai intl)

現在時刻: 8/18 22:35 JST (8/18 13:35 UTC) 以下の時間は現地時間です。

過去48時間のMETAR気象情報
時間 風向 風速(m/s) 視程 気温(℃) 湿度(%) 気圧(hPa) 天気現象
18 22:00 北東 5 10km以上 27 79 1007
18 21:30 北東 7 10km以上 28 74 1007
18 21:00 北東 6 10km以上 28 74 1007
18 20:30 北北東 6 10km以上 28 79 1007
18 20:00 北北西 6 10km以上 28 84 1007
18 19:30 2 10km以上 28 74 1007
18 19:00 2 10km以上 28 79 1007
18 18:30 不定 1 10km以上 28 74 1006
18 18:00 北西 2 10km以上 28 74 1006
18 17:30 北北西 2 10km以上 28 74 1006
18 17:00 不定 1 10km以上 28 74 1006
18 16:30 西 2 10km以上 28 74 1006
18 16:00 西北西 2 10km以上 28 70 1006
18 15:30 南西 2 10km以上 30 66 1006
18 15:00 3 10km以上 28 74 1006
18 14:30 西 2 10km以上 27 79 1006
18 14:00 不定 1 10km以上 27 79 1006
18 13:30 不定 1 10km以上 27 79 1007
18 13:00 北西 2 10km以上 28 79 1007
18 12:30 西 3 10km以上 27 79 1007
18 12:00 西北西 3 10km以上 27 79 1007
18 11:30 南南西 2 10km以上 27 84 1007
18 11:00 南南西 3 10km以上 27 79 1007
18 10:30 不定 1 10km以上 26 84 1007
18 10:00 不定 1 10km以上 25 83 1007
18 09:30 北西 3 10km以上 25 83 1007
18 09:00 南西 2 10km以上 25 83 1007
18 08:30 南西 2 10km以上 24 94 1008 弱いしゅう雨
18 08:00 西南西 4 7000m 24 94 1008 弱いしゅう雨 もや
18 07:30 西南西 4 4000m 24 89 1008 しゅう雨 もや
18 07:20 西北西 9 3000m 24 94 1008 強いしゅう雨 もや
18 07:15 西 8 3000m 24 94 1008 強いしゅう雨 もや
18 07:00 西 9 10km以上 25 83 1008 弱いしゅう雨
18 06:30 西北西 7 10km以上 25 89 1008 弱いしゅう雨
18 06:00 西北西 12 10km以上 24 89 1007 弱いしゅう雨
18 05:30 西北西 13 10km以上 25 89 1006
18 05:00 北西 13 10km以上 25 83 1005 弱い雨
18 04:44 西北西 11 10km以上 26 89 1005
18 04:30 南西 10 10km以上 28 94 1005
18 04:03 南南西 13 10km以上 28 89 1004
18 04:00 南南西 13 10km以上 28 89 1004
18 03:37 南南西 13 10km以上 28 89 1004
18 03:30 南南西 13 10km以上 28 89 1005
18 03:00 南南西 13 10km以上 28 89 1004
18 02:30 南南西 12 10km以上 28 89 1005
18 02:19 11 10km以上 28 89 1005
18 02:00 11 10km以上 28 89 1005
18 01:30 11 10km以上 28 94 1006 弱い雨
18 01:13 13 9000m 28 89 1006
18 01:05 南南西 14 4300m 28 94 1005 弱い雨 もや
18 01:00 南南西 14 7000m 29 84 1006 弱い雨
18 00:51 南南西 11 10km以上 29 84 1006
18 00:30 南南西 11 10km以上 29 84 1006
18 00:00 南南西 13 10km以上 29 84 1006
17 23:48 南南西 10 10km以上 29 84 1006
17 23:30 南南西 12 10km以上 29 84 1006
17 23:03 12 10km以上 29 84 1007
17 23:00 12 10km以上 29 84 1007
17 22:30 10 10km以上 29 79 1007 弱いしゅう雨
17 22:00 9 10km以上 29 79 1007 弱いしゅう雨
17 21:30 8 10km以上 29 79 1008
17 21:00 南南西 8 10km以上 29 79 1008
17 20:30 7 10km以上 29 79 1008
17 20:00 南南西 7 10km以上 29 84 1008
17 19:30 南南西 7 10km以上 29 79 1008
17 19:00 6 10km以上 29 79 1008
17 18:30 南南西 6 10km以上 29 79 1008 周辺でしゅう雨
17 18:00 南南西 7 10km以上 30 75 1008 弱いしゅう雨
17 17:30 南南西 6 10km以上 30 75 1008 周辺でしゅう雨
17 17:00 南南西 5 10km以上 30 75 1008 周辺でしゅう雨
17 16:30 南南西 6 10km以上 30 75 1008 弱いしゅう雨
17 16:00 南南西 5 10km以上 31 66 1008 弱いしゅう雨
17 15:30 南南西 5 10km以上 32 67 1008
17 15:00 南西 5 10km以上 32 67 1008
17 14:30 南西 3 10km以上 30 79 1008
17 14:00 不定 1 10km以上 28 89 1008
17 13:30 3 10km以上 28 89 1009
17 13:00 北北西 4 10km以上 28 89 1009 周辺でしゅう雨
17 12:30 北北西 5 10km以上 28 89 1009 周辺でしゅう雨
17 12:00 北北西 3 10km以上 28 89 1009
17 11:30 北北西 3 10km以上 28 89 1009
17 11:00 北西 3 10km以上 28 89 1009
17 10:30 北北西 3 10km以上 28 89 1010
17 10:00 2 10km以上 28 89 1009
17 09:30 3 10km以上 28 89 1009 周辺でしゅう雨
17 09:00 2 10km以上 28 89 1009 周辺でしゅう雨
17 08:30 3 10km以上 28 89 1009 弱いしゅう雨
17 08:00 東北東 2 10km以上 28 84 1009
17 07:30 北東 2 10km以上 27 89 1009
17 07:00 東北東 3 10km以上 27 94 1009
17 06:30 東北東 2 10km以上 27 94 1009
17 06:00 2 10km以上 27 94 1009
17 05:30 2 10km以上 27 89 1008
17 05:00 不定 1 10km以上 27 94 1008
17 04:30 北西 4 10km以上 27 89 1009
17 04:00 北北西 2 10km以上 27 94 1008
17 03:30 南西 2 10km以上 27 94 1008
17 03:00 南南西 2 10km以上 27 94 1008
17 02:30 南西 2 10km以上 27 89 1008
17 02:00 2 10km以上 27 94 1008
17 01:30 南南東 2 10km以上 27 89 1008 弱い雨
17 01:00 3 10km以上 27 94 1008
17 00:44 南南西 4 10km以上 26 100 1008
17 00:39 南南西 4 10km以上 26 100 1008 強い雨
17 00:28 南南西 4 1500m 27 94 1008 強い雨 もや
17 00:15 4 2400m 27 94 1008 弱い雨 もや
17 00:00 4 10km以上 27 89 1008
16 23:30 5 10km以上 27 94 1008
16 23:00 南西 4 10km以上 27 89 1008
RJBB 181300Z 05009KT 9999 FEW020 SCT060 BKN080 27/23 Q1007 NOSIG
RJBB 181230Z 04013KT 9999 FEW020 SCT080 28/23 Q1007 NOSIG
RJBB 181200Z 04012KT 9999 FEW020 SCT090 28/23 Q1007 NOSIG
RJBB 181130Z 03012KT 9999 FEW020 28/24 Q1007 NOSIG
RJBB 181100Z 33012KT 9999 FEW020 SCT/// 28/25 Q1007 NOSIG
RJBB 181030Z 36003KT 320V030 9999 FEW020 SCT100 28/23 Q1007 NOSIG
RJBB 181000Z 35004KT 320V020 9999 FEW020 28/24 Q1007 NOSIG
RJBB 180930Z VRB02KT 9999 FEW020 28/23 Q1006 BECMG 01005KT
RJBB 180900Z 32004KT 260V330 9999 FEW020 28/23 Q1006 BECMG 01005KT
RJBB 180830Z 34003KT 310V020 9999 FEW020 28/23 Q1006 NOSIG
RJBB 180800Z VRB02KT 9999 FEW020 28/23 Q1006 NOSIG
RJBB 180730Z 27003KT 9999 FEW020 28/23 Q1006 NOSIG
RJBB 180700Z 30004KT 260V330 9999 FEW020 28/22 Q1006 BECMG 35006KT
RJBB 180630Z 22004KT 170V280 9999 FEW020 30/23 Q1006 NOSIG
RJBB 180600Z 18005KT 140V210 9999 FEW020 28/23 Q1006 NOSIG
RJBB 180530Z 27003KT 180V310 9999 FEW020 27/23 Q1006 NOSIG
RJBB 180500Z VRB02KT 9999 FEW020 27/23 Q1006 NOSIG
RJBB 180430Z VRB02KT 9999 FEW015 27/23 Q1007 BECMG 24006KT
RJBB 180400Z 31004KT 270V350 9999 FEW015 SCT020 28/24 Q1007 NOSIG
RJBB 180330Z 27006KT 9999 FEW010 SCT025 27/23 Q1007 NOSIG
RJBB 180300Z 29005KT 250V330 9999 FEW010 SCT025 27/23 Q1007 NOSIG
RJBB 180230Z 20004KT 120V240 9999 FEW010 BKN025 27/24 Q1007 NOSIG
RJBB 180200Z 20006KT 160V240 9999 FEW015 SCT025 27/23 Q1007 NOSIG
RJBB 180130Z VRB02KT 9999 FEW008 BKN025 26/23 Q1007 BECMG 28006KT
RJBB 180100Z VRB01KT 9999 FEW008 SCT020 BKN050 25/22 Q1007 BECMG 31006KT
RJBB 180030Z 31006KT 280V350 9999 FEW008 SCT020 BKN080 25/22 Q1007 NOSIG
RJBB 180000Z 23004KT 190V260 9999 FEW008 SCT030 BKN080 25/22 Q1007 NOSIG
RJBB 172330Z 22003KT 170V260 9999 -SHRA FEW005 SCT030 BKN100 24/23 Q1008 NOSIG
RJBB 172300Z 24007KT 200V280 7000 -SHRA BR FEW003 SCT015 BKN030 24/23 Q1008 TEMPO 3000 TSRA BR FEW003 BKN008 BKN015 FEW015CB
RJBB 172230Z 25007KT 4000 R24L/1300VP2000U R24R/1000VP2000U SHRA BR FEW003 SCT015 FEW020CB BKN030 24/22 Q1008 TEMPO 3000 TSRA BR
RJBB 172220Z 29017KT 3000 R24L/2000N R24R/0800VP2000D +SHRA BR FEW003 SCT015 SCT020CB BKN030 24/23 Q1008 RMK 1ST003 3CU015 3CB020 6CU030 A2979 CB OHD MOV E
RJBB 172215Z 28016KT 3000 R24L/P2000N R24R/P2000N +SHRA BR FEW003 SCT015 SCT020CB BKN030 24/23 Q1008 RMK 1ST003 3CU015 3CB020 6CU030 A2979 CB OHD MOV E RI++
RJBB 172200Z 27017KT 9999 -SHRA FEW003 SCT020 FEW025CB BKN030 25/22 Q1008 TEMPO 4000 SHRA BR
RJBB 172130Z 30014KT 9999 -SHRA FEW003 SCT020 BKN030 25/23 Q1008 TEMPO 4000 SHRA BR
RJBB 172100Z 30023KT 9999 -SHRA FEW005 SCT020 BKN030 24/22 Q1007 TEMPO 4000 SHRA BR
RJBB 172030Z AUTO 30025KT 9999 FEW026 BKN029 BKN034 //////TCU 25/23 Q1006 TEMPO 4000 SHRA BR
RJBB 172000Z AUTO 31025KT 9999 -RA FEW007 SCT029 BKN050 //////TCU 25/22 Q1005 TEMPO 4000 SHRA BR FEW005 BKN008 BKN015
RJBB 171944Z AUTO 30021KT 260V320 9999 FEW007 SCT012 OVC013 //////CB 26/24 Q1005 RMK A2969 CB 30KM NE MOV E TCU 35KM W MOV UNKNOWN
RJBB 171930Z AUTO 22020KT 9999 BKN013 BKN015 OVC070 //////TCU 28/27 Q1005 BECMG 21034G46KT
RJBB 171903Z AUTO 20025G35KT 9999 BKN013 BKN100 OVC120 //////CB 28/26 Q1004 RMK A2966 CB FM 30KM NW TO 40KM N MOV E
RJBB 171900Z AUTO 20025G35KT 9999 FEW014 SCT015 BKN090 //////CB 28/26 Q1004 TEMPO 21034G46KT FEW008 BKN012
RJBB 171837Z AUTO 20025KT 9999 BKN014 OVC170 //////TCU 28/26 Q1004 RMK A2967 TCU 40KM SE MOV N
RJBB 171830Z AUTO 21025KT 9999 BKN015 BKN090 OVC110 //////TCU 28/26 Q1005 TEMPO 21034G46KT
RJBB 171800Z AUTO 20026KT 9999 BKN017 BKN090 BKN160 28/26 Q1004 TEMPO 20034G46KT
RJBB 171730Z AUTO 20024KT 9999 BKN016 OVC160 28/26 Q1005 BECMG 20034G46KT
RJBB 171719Z AUTO 19022G32KT 9999 FEW016 SCT070 BKN080 28/26 Q1005 RMK A2968
RJBB 171700Z AUTO 19021KT 9999 FEW015 SCT070 BKN080 28/26 Q1005 BECMG 20034KT TEMPO 20034G46KT
RJBB 171630Z AUTO 19022KT 9999 -RA FEW011 BKN080 BKN100 //////TCU 28/27 Q1006 BECMG 20034G46KT
RJBB 171613Z AUTO 19025KT 9000 FEW015 SCT110 BKN140 //////TCU 28/26 Q1006 RMK A2971 TCU 40KM SE MOV NE
RJBB 171605Z AUTO 20027KT 4300 -RA BR FEW015 SCT038 BKN120 //////TCU 28/27 Q1005 RMK A2970 TCU 15KM S MOV NE
RJBB 171600Z AUTO 20028KT 7000 -RA FEW015 SCT070 BKN120 //////TCU 29/26 Q1006 NOSIG
RJBB 171551Z AUTO 20022G32KT 9999 SCT016 BKN021 BKN080 //////TCU 29/26 Q1006 RMK A2972 TCU 25KM S MOV NE
RJBB 171530Z AUTO 20022KT 9999 FEW019 SCT070 BKN090 29/26 Q1006 NOSIG
RJBB 171500Z AUTO 20025G35KT 9999 FEW015 SCT090 BKN110 29/26 Q1006 NOSIG
RJBB 171448Z AUTO 20020G30KT 9999 FEW015 SCT090 BKN100 //////TCU 29/26 Q1006 RMK A2973 TCU 40KM N MOV UNKNOWN
RJBB 171430Z AUTO 20023KT 9999 FEW017 SCT100 BKN140 //////TCU 29/26 Q1006 NOSIG
RJBB 171403Z AUTO 19023G33KT 9999 FEW017 SCT110 BKN140 //////TCU 29/26 Q1007 RMK A2974 TCU 40KM SE MOV NE
RJBB 171400Z AUTO 19024KT 9999 FEW017 SCT130 BKN160 //////TCU 29/26 Q1007 NOSIG
RJBB 171330Z 19020KT 9999 -SHRA FEW015 SCT030 BKN/// 29/25 Q1007 NOSIG
RJBB 171300Z 19018KT 9999 -SHRA FEW015 SCT030 BKN/// 29/25 Q1007 NOSIG
RJBB 171230Z 19016KT 9999 FEW015 BKN/// 29/25 Q1008 NOSIG
RJBB 171200Z 20016KT 9999 FEW015 FEW025CB SCT030 BKN/// 29/25 Q1008 NOSIG
RJBB 171130Z 19014KT 9999 FEW015 FEW025CB SCT030 BKN/// 29/25 Q1008 NOSIG
RJBB 171100Z 20014KT 9999 FEW020 FEW025CB SCT030 BKN080 29/26 Q1008 TEMPO TS
RJBB 171030Z 20013KT 9999 FEW020 FEW025CB SCT030 BKN080 29/25 Q1008 TEMPO -TSRA
RJBB 171000Z 19012KT 9999 FEW020 FEW025CB SCT030 BKN/// 29/25 Q1008 TEMPO -TSRA
RJBB 170930Z 20011KT 9999 VCSH FEW020 FEW025CB SCT030 BKN140 29/25 Q1008 TEMPO -TSRA
RJBB 170900Z 20013KT 9999 -SHRA FEW020 FEW025CB SCT030 BKN140 30/25 Q1008 TEMPO -TSRA
RJBB 170830Z 20012KT 9999 VCSH FEW020 FEW025CB SCT035 BKN/// 30/25 Q1008 TEMPO 3000 TSRA BR
RJBB 170800Z 21010KT 9999 VCSH FEW020 FEW025CB SCT035 BKN070 30/25 Q1008 TEMPO 3000 TSRA BR
RJBB 170730Z 20011KT 9999 -SHRA FEW020 SCT035 BKN070 30/25 Q1008 TEMPO 3000 -TSRA BR
RJBB 170700Z 21009KT 9999 -SHRA FEW020 FEW025CB SCT035 BKN080 31/24 Q1008 NOSIG
RJBB 170630Z 21009KT 9999 FEW020 BKN/// 32/25 Q1008 NOSIG
RJBB 170600Z 22009KT 9999 FEW020 BKN/// 32/25 Q1008 NOSIG
RJBB 170530Z 22005KT 9999 FEW020 BKN080 30/26 Q1008 NOSIG
RJBB 170500Z VRB02KT 9999 FEW020 SCT045 BKN080 28/26 Q1008 BECMG 31007KT
RJBB 170430Z 35005KT 270V030 9999 FEW015 SCT045 BKN100 28/26 Q1009 BECMG 31007KT
RJBB 170400Z 33008KT 9999 VCSH FEW015 SCT025 BKN080 28/26 Q1009 BECMG 30008KT
RJBB 170330Z 33010KT 9999 VCSH FEW015 SCT025 BKN/// 28/26 Q1009 TEMPO TL0500 4000 SHRA BR
RJBB 170300Z 34006KT 9999 FEW010 SCT025 BKN035 28/26 Q1009 BECMG 31005KT
RJBB 170230Z 33006KT 9999 FEW010 FEW020CB SCT025 BKN120 28/26 Q1009 BECMG 31005KT
RJBB 170200Z 31005KT 9999 FEW010 FEW020CB SCT025 BKN070 28/26 Q1009 NOSIG
RJBB 170130Z 33006KT 9999 FEW010 FEW020CB SCT025 BKN035 28/26 Q1010 BECMG 31005KT
RJBB 170100Z 35004KT 9999 FEW010 FEW020CB SCT025 BKN035 28/26 Q1009 NOSIG
RJBB 170030Z 01005KT 9999 VCSH FEW010 FEW020CB SCT025 BKN035 28/26 Q1009 NOSIG
RJBB 170000Z 09004KT 060V130 9999 VCSH FEW010 FEW020CB SCT025 BKN035 28/26 Q1009 NOSIG
RJBB 162330Z 10005KT 9999 -SHRA FEW010 SCT025 BKN090 28/26 Q1009 BECMG 20004KT
RJBB 162300Z 06004KT 9999 FEW008 SCT025 BKN/// 28/25 Q1009 NOSIG
RJBB 162230Z 05004KT 9999 FEW008 SCT025 BKN090 27/25 Q1009 NOSIG
RJBB 162200Z 07005KT 9999 FEW008 SCT025 BKN035 27/26 Q1009 NOSIG
RJBB 162130Z 06004KT 9999 FEW008 SCT025 BKN090 27/26 Q1009 NOSIG
RJBB 162100Z 09003KT 9999 FEW006 SCT020 BKN090 27/26 Q1009 NOSIG
RJBB 162030Z AUTO 01003KT 310V040 9999 SCT080 BKN090 OVC240 //////TCU 27/25 Q1008 NOSIG
RJBB 162000Z AUTO VRB02KT 9999 SCT070 BKN080 OVC100 //////TCU 27/26 Q1008 NOSIG
RJBB 161930Z AUTO 31008KT 9999 BKN028 BKN034 OVC070 //////TCU 27/25 Q1009 NOSIG
RJBB 161900Z AUTO 33004KT 9999 BKN031 OVC070 //////TCU 27/26 Q1008 NOSIG
RJBB 161830Z AUTO 22003KT 9999 BKN033 BKN038 OVC040 //////CB 27/26 Q1008 NOSIG
RJBB 161800Z AUTO 21003KT 9999 FEW036 SCT038 BKN040 //////CB 27/26 Q1008 TEMPO -TSRA
RJBB 161730Z AUTO 23003KT 9999 SCT035 BKN036 OVC100 //////CB 27/25 Q1008 TEMPO 3000 TSRA BR
RJBB 161700Z AUTO 18003KT 9999 SCT033 BKN034 BKN037 //////CB 27/26 Q1008 TEMPO 3000 TSRA BR
RJBB 161630Z AUTO 15004KT 9999 -RA BKN031 BKN034 OVC040 //////CB 27/25 Q1008 TEMPO 3000 TSRA BR
RJBB 161600Z AUTO 19005KT 9999 FEW016 BKN033 OVC044 //////CB 27/26 Q1008 TEMPO 3000 TSRA BR
RJBB 161544Z AUTO 20007KT 9999 R06R/1300VP2000D R24R/P2000N FEW016 SCT033 BKN035 //////CB 26/26 Q1008 RMK A2977 CB OHD MOV E TCU 35KM SE MOV E AND 40KM NW MOV N
RJBB 161539Z AUTO 20008KT 9999 R06R/1200VP2000U R24R/P2000N +RA FEW016 SCT028 BKN036 //////TCU 26/26 Q1008 RMK A2977 RI015 TCU OHD MOV E
RJBB 161528Z AUTO 20008KT 1500 R06R/2000N R06L/2000N +RA BR FEW007 SCT032 BKN036 //////CB 27/26 Q1008 RMK A2978 RI037 CB 40KM SE MOV E TCU OHD AND 20KM E MOV E
RJBB 161515Z AUTO 19008KT 2400 R06R/1400VP2000D R24R/P2000N -RA BR FEW007 SCT036 BKN038 //////TCU 27/26 Q1008 RMK A2978 TCU OHD AND 20KM E MOV E AND 5KM W MOV UNKNOWN
RJBB 161500Z AUTO 18007KT 9999 SCT037 BKN038 BKN040 //////TCU 27/25 Q1008 TEMPO 4000 TSRA BR
RJBB 161430Z AUTO 18009KT 9999 SCT042 SCT049 BKN050 //////TCU 27/26 Q1008 TEMPO 4000 SHRA BR
RJBB 161400Z AUTO 22007KT 9999 FEW006 SCT046 OVC050 //////CB 27/25 Q1008 TEMPO 4000 SHRA BR